Strona główna
METAR-TAF:

METAR-TAF

Lotnisko :

Concord, New Hampshire, Stany Zjednoczone

Szerokość geograficzna: 43-11-43N, Długość geograficzna: 071-30-04W, wysokość: 105 m

Aktualna obserwacja pogody

Raport powstał 45 minut temu, godzina 21:51 UTC
Wiatr 9 kt od południe
Temperatura 12°C
Wilgotność 54%
Ciśnienie 1015 hPa
Widzialność: 16.1 km
Rozproszone chmury na wysokości 4800 ft
Przerywane chmury na wysokości 6500 ft

METAR: KCON 042151Z AUTO 18009KT 10SM SCT048 BKN065 12/03 A2996 RMK AO2 SLP148 T01170028

czas: 18:36 (22:36 UTC)

Prognoza

Raport powstał 5 godziny i 16 minut temu, godzina 17:20 UTC
Prognoza ważna od 04 godzina 18 UTC do 05 godzina 18 UTC
Wiatr 5 kt od wschód
Widzialność: 10 km
Rozproszone chmury na wysokości 3000 ft
Od 04 godzina 2200 UTC
Wiatr 5 kt od wschód
Widzialność: 10 km
Mało chmury na wysokości 3000 ft
Od 05 godzina 0100 UTC
Wiatr kt od północ
Widzialność: 10 km
Przerywane chmury na wysokości 2000 ft

TAF: KCON 041720Z 0418/0518 09005KT P6SM SCT030 FM042200 10005KT P6SM FEW030 FM050100 00000KT P6SM BKN020

Obserwacja i prognoza pogody dla ponad 4000 lotnisk (raport METAR i TAF).

Dostępne stacje oznaczono żółtymi i czerwonymi punktami na mapie.

Najedź kursorem aby zobaczyć nazwę stacji.

Kliknij aby zobaczyć obserwacje i prognozy pogody.

Aby zmienić mapę: kliknij na zielony przycisk z czarnym krzyżykiem, aby powiększyć; na zielony przycisk z myślnikiem, aby pomniejszyć; na zielone strzałki, aby przejść do map sąsiednich.


METAR-TAF: